sensor_id;sensor_type;location;lat;lon;timestamp;temperature;humidity
68109;SHT30;54893;49.864;19.084;2023-01-15T00:04:17;6.99;65.10
68109;SHT30;54893;49.864;19.084;2023-01-15T00:09:17;6.95;65.16
68109;SHT30;54893;49.864;19.084;2023-01-15T00:14:18;6.97;65.22
68109;SHT30;54893;49.864;19.084;2023-01-15T00:19:18;7.06;64.70
68109;SHT30;54893;49.864;19.084;2023-01-15T00:24:19;7.10;64.80
68109;SHT30;54893;49.864;19.084;2023-01-15T00:29:43;7.02;65.20
68109;SHT30;54893;49.864;19.084;2023-01-15T00:34:43;7.07;65.06
68109;SHT30;54893;49.864;19.084;2023-01-15T00:39:43;7.16;64.12
68109;SHT30;54893;49.864;19.084;2023-01-15T00:44:44;7.19;64.05
68109;SHT30;54893;49.864;19.084;2023-01-15T00:49:46;7.06;65.02
68109;SHT30;54893;49.864;19.084;2023-01-15T00:54:48;7.19;64.75
68109;SHT30;54893;49.864;19.084;2023-01-15T00:59:48;7.12;65.09
68109;SHT30;54893;49.864;19.084;2023-01-15T01:04:49;7.06;65.91
68109;SHT30;54893;49.864;19.084;2023-01-15T01:09:49;7.05;66.29
68109;SHT30;54893;49.864;19.084;2023-01-15T01:14:49;6.91;67.08
68109;SHT30;54893;49.864;19.084;2023-01-15T01:19:50;6.93;66.77
68109;SHT30;54893;49.864;19.084;2023-01-15T01:24:50;6.91;67.04
68109;SHT30;54893;49.864;19.084;2023-01-15T01:29:50;6.83;67.48
68109;SHT30;54893;49.864;19.084;2023-01-15T01:34:51;6.85;67.63
68109;SHT30;54893;49.864;19.084;2023-01-15T01:39:51;6.79;67.87
68109;SHT30;54893;49.864;19.084;2023-01-15T01:45:11;6.93;66.98
68109;SHT30;54893;49.864;19.084;2023-01-15T01:50:16;6.76;67.91
68109;SHT30;54893;49.864;19.084;2023-01-15T01:55:19;6.81;67.88
68109;SHT30;54893;49.864;19.084;2023-01-15T02:00:21;6.78;67.91
68109;SHT30;54893;49.864;19.084;2023-01-15T02:05:30;6.56;68.53
68109;SHT30;54893;49.864;19.084;2023-01-15T02:10:30;6.69;67.55
68109;SHT30;54893;49.864;19.084;2023-01-15T02:15:54;6.62;68.01
68109;SHT30;54893;49.864;19.084;2023-01-15T02:21:15;6.73;67.72
68109;SHT30;54893;49.864;19.084;2023-01-15T02:31:40;6.69;67.98
68109;SHT30;54893;49.864;19.084;2023-01-15T02:36:45;6.65;68.14
68109;SHT30;54893;49.864;19.084;2023-01-15T02:41:48;6.76;67.91
68109;SHT30;54893;49.864;19.084;2023-01-15T02:46:54;6.65;68.37
68109;SHT30;54893;49.864;19.084;2023-01-15T02:57:06;6.72;68.55
68109;SHT30;54893;49.864;19.084;2023-01-15T03:02:20;6.82;68.14
68109;SHT30;54893;49.864;19.084;2023-01-15T03:07:36;6.99;67.88
68109;SHT30;54893;49.864;19.084;2023-01-15T03:12:49;7.33;67.16
68109;SHT30;54893;49.864;19.084;2023-01-15T03:18:04;7.43;67.37
68109;SHT30;54893;49.864;19.084;2023-01-15T03:23:08;7.44;67.19
68109;SHT30;54893;49.864;19.084;2023-01-15T03:28:10;7.49;67.73
68109;SHT30;54893;49.864;19.084;2023-01-15T03:33:12;7.49;68.31
68109;SHT30;54893;49.864;19.084;2023-01-15T03:38:18;7.33;68.82
68109;SHT30;54893;49.864;19.084;2023-01-15T03:43:20;7.37;68.59
68109;SHT30;54893;49.864;19.084;2023-01-15T03:49:31;7.16;69.09
68109;SHT30;54893;49.864;19.084;2023-01-15T03:54:10;7.06;69.60
68109;SHT30;54893;49.864;19.084;2023-01-15T03:59:22;7.12;68.99
68109;SHT30;54893;49.864;19.084;2023-01-15T04:04:25;7.07;69.29
68109;SHT30;54893;49.864;19.084;2023-01-15T04:09:26;7.23;68.73
68109;SHT30;54893;49.864;19.084;2023-01-15T04:14:29;7.16;68.83
68109;SHT30;54893;49.864;19.084;2023-01-15T04:19:29;7.20;68.61
68109;SHT30;54893;49.864;19.084;2023-01-15T04:24:30;7.22;68.46
68109;SHT30;54893;49.864;19.084;2023-01-15T04:29:30;7.23;68.64
68109;SHT30;54893;49.864;19.084;2023-01-15T04:34:30;7.19;68.90
68109;SHT30;54893;49.864;19.084;2023-01-15T04:39:31;7.17;68.77
68109;SHT30;54893;49.864;19.084;2023-01-15T04:44:33;7.20;68.57
68109;SHT30;54893;49.864;19.084;2023-01-15T04:49:33;7.16;68.82
68109;SHT30;54893;49.864;19.084;2023-01-15T04:54:34;7.13;68.77
68109;SHT30;54893;49.864;19.084;2023-01-15T04:59:34;7.12;68.53
68109;SHT30;54893;49.864;19.084;2023-01-15T05:04:34;7.24;68.17
68109;SHT30;54893;49.864;19.084;2023-01-15T05:09:35;7.22;68.43
68109;SHT30;54893;49.864;19.084;2023-01-15T05:14:35;7.33;68.22
68109;SHT30;54893;49.864;19.084;2023-01-15T05:19:36;7.33;67.99
68109;SHT30;54893;49.864;19.084;2023-01-15T05:24:36;7.40;67.81
68109;SHT30;54893;49.864;19.084;2023-01-15T05:29:36;7.50;67.51
68109;SHT30;54893;49.864;19.084;2023-01-15T05:34:37;7.53;67.09
68109;SHT30;54893;49.864;19.084;2023-01-15T05:39:37;7.54;66.89
68109;SHT30;54893;49.864;19.084;2023-01-15T05:44:37;7.42;67.52
68109;SHT30;54893;49.864;19.084;2023-01-15T05:49:38;7.37;67.43
68109;SHT30;54893;49.864;19.084;2023-01-15T05:54:38;7.31;67.72
68109;SHT30;54893;49.864;19.084;2023-01-15T05:59:39;7.37;67.30
68109;SHT30;54893;49.864;19.084;2023-01-15T06:04:39;7.27;67.54
68109;SHT30;54893;49.864;19.084;2023-01-15T06:09:39;7.31;67.50
68109;SHT30;54893;49.864;19.084;2023-01-15T06:14:40;7.24;67.38
68109;SHT30;54893;49.864;19.084;2023-01-15T06:19:40;7.22;67.22
68109;SHT30;54893;49.864;19.084;2023-01-15T06:24:40;7.39;66.31
68109;SHT30;54893;49.864;19.084;2023-01-15T06:29:40;7.46;65.93
68109;SHT30;54893;49.864;19.084;2023-01-15T06:34:41;7.60;65.51
68109;SHT30;54893;49.864;19.084;2023-01-15T06:39:43;7.54;65.87
68109;SHT30;54893;49.864;19.084;2023-01-15T06:44:43;7.43;66.32
68109;SHT30;54893;49.864;19.084;2023-01-15T06:50:02;7.37;66.41
68109;SHT30;54893;49.864;19.084;2023-01-15T06:55:03;7.23;66.99
68109;SHT30;54893;49.864;19.084;2023-01-15T07:00:07;7.26;66.48
68109;SHT30;54893;49.864;19.084;2023-01-15T07:05:08;7.23;66.84
68109;SHT30;54893;49.864;19.084;2023-01-15T07:10:09;7.19;66.83
68109;SHT30;54893;49.864;19.084;2023-01-15T07:15:10;7.26;66.52
68109;SHT30;54893;49.864;19.084;2023-01-15T07:20:11;7.34;65.77
68109;SHT30;54893;49.864;19.084;2023-01-15T07:25:11;7.33;65.85
68109;SHT30;54893;49.864;19.084;2023-01-15T07:30:12;7.43;65.80
68109;SHT30;54893;49.864;19.084;2023-01-15T07:35:12;7.53;65.30
68109;SHT30;54893;49.864;19.084;2023-01-15T07:40:13;7.56;64.52
68109;SHT30;54893;49.864;19.084;2023-01-15T07:45:13;7.64;64.39
68109;SHT30;54893;49.864;19.084;2023-01-15T07:50:32;7.77;63.73
68109;SHT30;54893;49.864;19.084;2023-01-15T07:55:34;7.73;63.68
68109;SHT30;54893;49.864;19.084;2023-01-15T08:00:35;7.57;64.22
68109;SHT30;54893;49.864;19.084;2023-01-15T08:05:35;7.59;64.03
68109;SHT30;54893;49.864;19.084;2023-01-15T08:10:35;7.51;64.18
68109;SHT30;54893;49.864;19.084;2023-01-15T08:15:56;7.67;63.13
68109;SHT30;54893;49.864;19.084;2023-01-15T08:20:56;7.40;64.35
68109;SHT30;54893;49.864;19.084;2023-01-15T08:26:00;7.43;63.97
68109;SHT30;54893;49.864;19.084;2023-01-15T08:31:00;7.61;63.85
68109;SHT30;54893;49.864;19.084;2023-01-15T08:36:01;7.56;63.38
68109;SHT30;54893;49.864;19.084;2023-01-15T08:41:01;7.63;63.13
68109;SHT30;54893;49.864;19.084;2023-01-15T08:46:04;7.77;62.40
68109;SHT30;54893;49.864;19.084;2023-01-15T08:51:05;7.84;61.74
68109;SHT30;54893;49.864;19.084;2023-01-15T08:56:14;7.60;62.72
68109;SHT30;54893;49.864;19.084;2023-01-15T09:01:14;7.73;62.28
68109;SHT30;54893;49.864;19.084;2023-01-15T09:06:15;7.84;61.88
68109;SHT30;54893;49.864;19.084;2023-01-15T09:11:15;7.90;61.39
68109;SHT30;54893;49.864;19.084;2023-01-15T09:16:16;8.04;61.36
68109;SHT30;54893;49.864;19.084;2023-01-15T09:21:17;8.09;60.64
68109;SHT30;54893;49.864;19.084;2023-01-15T09:26:35;8.21;59.97
68109;SHT30;54893;49.864;19.084;2023-01-15T09:31:35;8.25;60.02
68109;SHT30;54893;49.864;19.084;2023-01-15T09:36:36;8.14;61.26
68109;SHT30;54893;49.864;19.084;2023-01-15T09:57:22;8.59;59.47
68109;SHT30;54893;49.864;19.084;2023-01-15T10:02:37;8.42;60.22
68109;SHT30;54893;49.864;19.084;2023-01-15T10:08:03;8.49;59.90
68109;SHT30;54893;49.864;19.084;2023-01-15T10:13:27;8.37;61.39
68109;SHT30;54893;49.864;19.084;2023-01-15T10:18:29;8.29;61.35
68109;SHT30;54893;49.864;19.084;2023-01-15T10:23:36;8.25;61.37
68109;SHT30;54893;49.864;19.084;2023-01-15T10:39:22;8.09;62.19
68109;SHT30;54893;49.864;19.084;2023-01-15T10:44:27;8.01;62.61
68109;SHT30;54893;49.864;19.084;2023-01-15T10:49:39;7.98;62.92
68109;SHT30;54893;49.864;19.084;2023-01-15T10:54:45;7.84;63.52
68109;SHT30;54893;49.864;19.084;2023-01-15T10:59:48;7.80;63.96
68109;SHT30;54893;49.864;19.084;2023-01-15T11:04:49;7.73;64.91
68109;SHT30;54893;49.864;19.084;2023-01-15T11:09:50;7.77;65.01
68109;SHT30;54893;49.864;19.084;2023-01-15T11:14:50;7.69;65.37
68109;SHT30;54893;49.864;19.084;2023-01-15T11:20:31;7.60;66.06
68109;SHT30;54893;49.864;19.084;2023-01-15T11:25:34;7.71;66.11
68109;SHT30;54893;49.864;19.084;2023-01-15T11:30:36;7.70;66.55
68109;SHT30;54893;49.864;19.084;2023-01-15T11:35:37;7.78;66.81
68109;SHT30;54893;49.864;19.084;2023-01-15T11:40:37;7.60;67.36
68109;SHT30;54893;49.864;19.084;2023-01-15T11:45:51;7.61;68.11
68109;SHT30;54893;49.864;19.084;2023-01-15T11:51:13;7.63;68.62
68109;SHT30;54893;49.864;19.084;2023-01-15T11:56:17;7.53;69.58
68109;SHT30;54893;49.864;19.084;2023-01-15T12:01:29;7.59;70.34
68109;SHT30;54893;49.864;19.084;2023-01-15T12:06:34;7.70;70.22
68109;SHT30;54893;49.864;19.084;2023-01-15T12:17:11;7.85;70.12
68109;SHT30;54893;49.864;19.084;2023-01-15T12:32:47;8.09;69.64
68109;SHT30;54893;49.864;19.084;2023-01-15T12:37:55;8.15;69.28
68109;SHT30;54893;49.864;19.084;2023-01-15T12:42:57;8.11;69.35
68109;SHT30;54893;49.864;19.084;2023-01-15T12:48:34;8.22;69.28
68109;SHT30;54893;49.864;19.084;2023-01-15T12:53:41;8.27;69.18
68109;SHT30;54893;49.864;19.084;2023-01-15T12:58:56;8.24;69.21
68109;SHT30;54893;49.864;19.084;2023-01-15T13:14:16;8.05;70.68
68109;SHT30;54893;49.864;19.084;2023-01-15T13:19:36;7.99;70.89
68109;SHT30;54893;49.864;19.084;2023-01-15T13:24:52;7.90;71.06
68109;SHT30;54893;49.864;19.084;2023-01-15T13:35:29;7.83;71.76
68109;SHT30;54893;49.864;19.084;2023-01-15T13:40:34;7.80;71.70
68109;SHT30;54893;49.864;19.084;2023-01-15T13:45:48;7.75;71.87
68109;SHT30;54893;49.864;19.084;2023-01-15T13:50:57;7.69;72.33
68109;SHT30;54893;49.864;19.084;2023-01-15T13:56:07;7.56;72.77
68109;SHT30;54893;49.864;19.084;2023-01-15T14:06:21;7.49;72.97
68109;SHT30;54893;49.864;19.084;2023-01-15T14:12:06;7.53;73.12
68109;SHT30;54893;49.864;19.084;2023-01-15T14:18:04;7.43;73.64
68109;SHT30;54893;49.864;19.084;2023-01-15T14:33:42;7.39;74.04
68109;SHT30;54893;49.864;19.084;2023-01-15T14:38:48;7.46;73.77
68109;SHT30;54893;49.864;19.084;2023-01-15T14:43:49;7.37;74.02
68109;SHT30;54893;49.864;19.084;2023-01-15T14:48:51;7.37;74.42
68109;SHT30;54893;49.864;19.084;2023-01-15T14:53:56;7.31;74.75
68109;SHT30;54893;49.864;19.084;2023-01-15T15:04:39;7.22;75.54
68109;SHT30;54893;49.864;19.084;2023-01-15T15:15:01;7.36;75.17
68109;SHT30;54893;49.864;19.084;2023-01-15T15:25:37;7.46;75.09
68109;SHT30;54893;49.864;19.084;2023-01-15T15:30:43;7.59;74.68
68109;SHT30;54893;49.864;19.084;2023-01-15T15:36:03;7.47;74.86
68109;SHT30;54893;49.864;19.084;2023-01-15T15:41:05;7.49;75.16
68109;SHT30;54893;49.864;19.084;2023-01-15T15:51:46;7.53;75.27
68109;SHT30;54893;49.864;19.084;2023-01-15T15:57:13;7.50;75.41
68109;SHT30;54893;49.864;19.084;2023-01-15T16:02:24;7.44;75.62
68109;SHT30;54893;49.864;19.084;2023-01-15T16:12:43;7.50;76.29
68109;SHT30;54893;49.864;19.084;2023-01-15T16:17:45;7.57;76.34
68109;SHT30;54893;49.864;19.084;2023-01-15T16:22:51;7.39;77.36
68109;SHT30;54893;49.864;19.084;2023-01-15T16:27:53;7.43;77.54
68109;SHT30;54893;49.864;19.084;2023-01-15T16:32:54;7.46;77.70
68109;SHT30;54893;49.864;19.084;2023-01-15T16:38:00;7.54;77.62
68109;SHT30;54893;49.864;19.084;2023-01-15T16:43:27;7.42;78.44
68109;SHT30;54893;49.864;19.084;2023-01-15T16:48:36;7.34;79.06
68109;SHT30;54893;49.864;19.084;2023-01-15T16:53:45;7.30;79.98
68109;SHT30;54893;49.864;19.084;2023-01-15T16:58:45;7.07;81.46
68109;SHT30;54893;49.864;19.084;2023-01-15T17:03:45;6.89;82.62
68109;SHT30;54893;49.864;19.084;2023-01-15T17:08:47;6.72;83.62
68109;SHT30;54893;49.864;19.084;2023-01-15T17:13:47;6.45;85.07
68109;SHT30;54893;49.864;19.084;2023-01-15T17:18:49;6.32;85.83
68109;SHT30;54893;49.864;19.084;2023-01-15T17:23:49;6.04;86.25
68109;SHT30;54893;49.864;19.084;2023-01-15T17:28:50;5.89;86.09
68109;SHT30;54893;49.864;19.084;2023-01-15T17:33:51;5.74;86.29
68109;SHT30;54893;49.864;19.084;2023-01-15T17:38:52;5.43;87.71
68109;SHT30;54893;49.864;19.084;2023-01-15T17:43:52;5.25;88.60
68109;SHT30;54893;49.864;19.084;2023-01-15T17:48:53;5.13;89.38
68109;SHT30;54893;49.864;19.084;2023-01-15T17:53:53;5.09;89.72
68109;SHT30;54893;49.864;19.084;2023-01-15T17:58:54;5.08;89.81
68109;SHT30;54893;49.864;19.084;2023-01-15T18:04:39;4.97;89.71
68109;SHT30;54893;49.864;19.084;2023-01-15T18:10:00;4.92;89.50
68109;SHT30;54893;49.864;19.084;2023-01-15T18:15:00;4.81;89.56
68109;SHT30;54893;49.864;19.084;2023-01-15T18:20:01;4.85;89.16
68109;SHT30;54893;49.864;19.084;2023-01-15T18:25:01;4.72;89.50
68109;SHT30;54893;49.864;19.084;2023-01-15T18:30:01;4.54;90.20
68109;SHT30;54893;49.864;19.084;2023-01-15T18:35:02;4.52;90.23
68109;SHT30;54893;49.864;19.084;2023-01-15T18:40:04;4.45;90.44
68109;SHT30;54893;49.864;19.084;2023-01-15T18:45:04;4.45;90.78
68109;SHT30;54893;49.864;19.084;2023-01-15T18:50:24;4.38;90.73
68109;SHT30;54893;49.864;19.084;2023-01-15T18:55:24;4.45;90.41
68109;SHT30;54893;49.864;19.084;2023-01-15T19:00:24;4.37;90.85
68109;SHT30;54893;49.864;19.084;2023-01-15T19:05:25;4.44;90.38
68109;SHT30;54893;49.864;19.084;2023-01-15T19:10:27;4.31;90.58
68109;SHT30;54893;49.864;19.084;2023-01-15T19:15:27;4.31;90.80
68109;SHT30;54893;49.864;19.084;2023-01-15T19:20:46;4.28;90.86
68109;SHT30;54893;49.864;19.084;2023-01-15T19:25:47;4.25;91.16
68109;SHT30;54893;49.864;19.084;2023-01-15T19:30:48;4.31;90.69
68109;SHT30;54893;49.864;19.084;2023-01-15T19:36:08;4.30;90.44
68109;SHT30;54893;49.864;19.084;2023-01-15T19:41:11;4.17;90.89
68109;SHT30;54893;49.864;19.084;2023-01-15T19:46:30;4.08;91.02
68109;SHT30;54893;49.864;19.084;2023-01-15T19:51:49;4.14;90.85
68109;SHT30;54893;49.864;19.084;2023-01-15T19:57:08;4.03;91.01
68109;SHT30;54893;49.864;19.084;2023-01-15T20:02:09;4.21;90.26
68109;SHT30;54893;49.864;19.084;2023-01-15T20:07:09;4.04;90.71
68109;SHT30;54893;49.864;19.084;2023-01-15T20:12:10;4.03;90.74
68109;SHT30;54893;49.864;19.084;2023-01-15T20:17:29;4.04;90.71
68109;SHT30;54893;49.864;19.084;2023-01-15T20:22:30;4.00;90.83
68109;SHT30;54893;49.864;19.084;2023-01-15T20:27:33;4.07;90.26
68109;SHT30;54893;49.864;19.084;2023-01-15T20:32:38;4.11;90.41
68109;SHT30;54893;49.864;19.084;2023-01-15T20:37:39;4.05;90.41
68109;SHT30;54893;49.864;19.084;2023-01-15T20:42:39;4.10;90.26
68109;SHT30;54893;49.864;19.084;2023-01-15T20:47:58;4.38;89.64
68109;SHT30;54893;49.864;19.084;2023-01-15T20:53:10;4.37;89.62
68109;SHT30;54893;49.864;19.084;2023-01-15T20:58:11;4.40;89.45
68109;SHT30;54893;49.864;19.084;2023-01-15T21:03:11;4.45;89.45
68109;SHT30;54893;49.864;19.084;2023-01-15T21:08:11;4.58;88.74
68109;SHT30;54893;49.864;19.084;2023-01-15T21:13:12;4.81;87.88
68109;SHT30;54893;49.864;19.084;2023-01-15T21:18:12;4.72;88.21
68109;SHT30;54893;49.864;19.084;2023-01-15T21:23:12;4.85;87.60
68109;SHT30;54893;49.864;19.084;2023-01-15T21:28:13;4.71;88.07
68109;SHT30;54893;49.864;19.084;2023-01-15T21:33:14;4.68;88.18
68109;SHT30;54893;49.864;19.084;2023-01-15T21:38:14;4.65;87.94
68109;SHT30;54893;49.864;19.084;2023-01-15T21:43:14;4.65;87.95
68109;SHT30;54893;49.864;19.084;2023-01-15T21:48:34;4.75;87.58
68109;SHT30;54893;49.864;19.084;2023-01-15T21:53:37;4.62;88.06
68109;SHT30;54893;49.864;19.084;2023-01-15T21:58:38;4.61;88.24
68109;SHT30;54893;49.864;19.084;2023-01-15T22:03:39;4.65;87.87
68109;SHT30;54893;49.864;19.084;2023-01-15T22:08:39;4.69;87.82
68109;SHT30;54893;49.864;19.084;2023-01-15T22:13:39;4.79;87.59
68109;SHT30;54893;49.864;19.084;2023-01-15T22:18:40;4.64;88.05
68109;SHT30;54893;49.864;19.084;2023-01-15T22:23:41;4.88;86.85
68109;SHT30;54893;49.864;19.084;2023-01-15T22:28:42;4.82;86.58
68109;SHT30;54893;49.864;19.084;2023-01-15T22:33:43;4.79;86.69
68109;SHT30;54893;49.864;19.084;2023-01-15T22:38:43;4.97;85.73
68109;SHT30;54893;49.864;19.084;2023-01-15T22:43:45;5.05;85.22
68109;SHT30;54893;49.864;19.084;2023-01-15T22:48:45;5.06;84.75
68109;SHT30;54893;49.864;19.084;2023-01-15T22:53:45;4.97;84.95
68109;SHT30;54893;49.864;19.084;2023-01-15T22:58:46;4.97;84.86
68109;SHT30;54893;49.864;19.084;2023-01-15T23:03:46;4.88;84.73
68109;SHT30;54893;49.864;19.084;2023-01-15T23:08:47;4.88;84.69
68109;SHT30;54893;49.864;19.084;2023-01-15T23:13:47;4.85;84.57
68109;SHT30;54893;49.864;19.084;2023-01-15T23:18:48;4.86;84.34
68109;SHT30;54893;49.864;19.084;2023-01-15T23:23:56;4.73;84.48
68109;SHT30;54893;49.864;19.084;2023-01-15T23:28:57;4.58;84.72
68109;SHT30;54893;49.864;19.084;2023-01-15T23:33:58;4.48;84.79
68109;SHT30;54893;49.864;19.084;2023-01-15T23:38:58;4.57;84.55
68109;SHT30;54893;49.864;19.084;2023-01-15T23:43:58;4.30;85.14
68109;SHT30;54893;49.864;19.084;2023-01-15T23:49:17;4.11;85.51
68109;SHT30;54893;49.864;19.084;2023-01-15T23:54:18;4.03;85.91
68109;SHT30;54893;49.864;19.084;2023-01-15T23:59:18;4.10;85.59
